createdAt,value
2018-12-29T00:01:29.324Z,27.55
2018-12-29T00:03:59.034Z,26.02
2018-12-29T00:06:28.539Z,27.73
2018-12-29T00:08:58.147Z,26.12
2018-12-29T00:11:27.957Z,26.97
2018-12-29T00:13:57.563Z,25.12
2018-12-29T00:16:27.047Z,26.62
2018-12-29T00:18:56.675Z,27.80
2018-12-29T00:21:26.078Z,26.82
2018-12-29T00:23:55.789Z,30.95
2018-12-29T00:26:25.293Z,30.95
2018-12-29T00:28:54.825Z,30.92
2018-12-29T00:31:24.428Z,28.87
2018-12-29T00:33:54.012Z,32.35
2018-12-29T00:36:23.619Z,24.75
2018-12-29T00:38:53.122Z,28.17
2018-12-29T00:41:22.504Z,26.27
2018-12-29T00:43:52.029Z,32.25
2018-12-29T00:46:21.537Z,25.95
2018-12-29T00:48:51.045Z,29.57
2018-12-29T00:51:20.546Z,29.60
2018-12-29T00:53:50.157Z,27.40
2018-12-29T00:56:19.553Z,27.00
2018-12-29T00:58:48.955Z,25.30
2018-12-29T01:01:18.460Z,30.60
2018-12-29T01:03:47.965Z,28.38
2018-12-29T01:06:17.469Z,31.93
2018-12-29T01:08:46.961Z,27.95
2018-12-29T01:11:16.579Z,32.00
2018-12-29T01:13:45.982Z,30.90
2018-12-29T01:16:15.488Z,31.45
2018-12-29T01:18:44.889Z,29.37
2018-12-29T01:21:14.394Z,26.65
2018-12-29T01:23:43.899Z,33.83
2018-12-29T01:26:13.404Z,30.08
2018-12-29T01:28:43.012Z,26.55
2018-12-29T01:31:12.517Z,27.60
2018-12-29T01:33:42.123Z,29.82
2018-12-29T01:36:11.630Z,32.95
2018-12-29T01:38:41.030Z,30.45
2018-12-29T01:41:10.534Z,34.38
2018-12-29T01:43:39.936Z,29.27
2018-12-29T01:46:09.443Z,30.25
2018-12-29T01:48:38.842Z,30.45
2018-12-29T01:51:08.351Z,34.00
2018-12-29T01:53:37.954Z,30.25
2018-12-29T01:56:07.457Z,30.23
2018-12-29T01:58:37.066Z,33.28
2018-12-29T02:01:06.569Z,30.50
2018-12-29T02:03:35.980Z,33.98
2018-12-29T02:06:05.481Z,36.05
2018-12-29T02:08:34.880Z,31.57
2018-12-29T02:11:04.486Z,37.10
2018-12-29T02:13:33.994Z,31.37
2018-12-29T02:16:03.599Z,38.80
2018-12-29T02:18:33.103Z,37.10
2018-12-29T02:21:02.617Z,35.78
2018-12-29T02:23:32.111Z,34.88
2018-12-29T02:26:01.620Z,34.18
2018-12-29T02:28:31.135Z,28.98
2018-12-29T02:31:00.527Z,37.65
2018-12-29T02:33:30.133Z,45.03
2018-12-29T02:35:59.638Z,39.35
2018-12-29T02:38:29.140Z,42.48
2018-12-29T02:40:58.541Z,38.02
2018-12-29T02:43:27.950Z,42.17
2018-12-29T02:45:57.653Z,37.53
2018-12-29T02:48:27.363Z,44.18
2018-12-29T02:50:56.867Z,38.38
2018-12-29T02:53:26.246Z,41.60
2018-12-29T02:55:55.877Z,35.15
2018-12-29T02:58:25.282Z,37.58
2018-12-29T03:00:54.887Z,37.10
2018-12-29T03:03:24.288Z,40.95
2018-12-29T03:05:53.999Z,36.88
2018-12-29T03:08:23.501Z,37.08
2018-12-29T03:10:52.981Z,40.73
2018-12-29T03:13:22.512Z,40.28
2018-12-29T03:15:52.120Z,37.53
2018-12-29T03:18:21.930Z,41.60
2018-12-29T03:20:51.435Z,40.30
2018-12-29T03:23:20.949Z,43.10
2018-12-29T03:25:50.446Z,35.65
2018-12-29T03:28:19.846Z,37.65
2018-12-29T03:30:49.352Z,45.28
2018-12-29T03:33:18.859Z,39.25
2018-12-29T03:35:48.361Z,38.40
2018-12-29T03:38:17.866Z,37.53
2018-12-29T03:40:47.474Z,39.73
2018-12-29T03:43:16.975Z,35.40
2018-12-29T03:45:49.241Z,37.80
2018-12-29T03:48:17.827Z,38.73
2018-12-29T03:50:47.231Z,36.38
2018-12-29T03:53:16.738Z,37.15
2018-12-29T03:55:46.242Z,43.33
2018-12-29T03:58:15.724Z,41.05
2018-12-29T04:00:45.250Z,37.50
2018-12-29T04:03:14.857Z,34.03
2018-12-29T04:05:44.362Z,40.10
2018-12-29T04:08:14.071Z,40.70
2018-12-29T04:10:43.578Z,36.28
2018-12-29T04:13:12.978Z,37.20
2018-12-29T04:15:42.483Z,46.53
2018-12-29T04:18:11.884Z,39.67
2018-12-29T04:20:41.389Z,36.05
2018-12-29T04:23:10.792Z,34.00
2018-12-29T04:25:40.297Z,34.92
2018-12-29T04:28:09.903Z,36.08
2018-12-29T04:30:39.510Z,36.90
2018-12-29T04:33:09.016Z,39.83
2018-12-29T04:35:38.519Z,34.38
2018-12-29T04:38:08.946Z,40.83
2018-12-29T04:40:38.428Z,44.35
2018-12-29T04:43:07.954Z,33.30
2018-12-29T04:45:37.562Z,36.90
2018-12-29T04:48:07.067Z,39.70
2018-12-29T04:50:36.573Z,35.68
2018-12-29T04:53:06.485Z,46.23
2018-12-29T04:55:36.092Z,44.42
2018-12-29T04:58:05.705Z,43.08
2018-12-29T05:00:35.205Z,43.02
2018-12-29T05:03:04.722Z,46.88
2018-12-29T05:05:34.216Z,45.40
2018-12-29T05:08:03.820Z,46.18
2018-12-29T05:10:33.325Z,42.93
2018-12-29T05:13:02.830Z,40.28
2018-12-29T05:15:32.436Z,44.88
2018-12-29T05:18:01.942Z,42.17
2018-12-29T05:20:31.344Z,40.52
2018-12-29T05:23:00.746Z,46.63
2018-12-29T05:25:30.351Z,38.17
2018-12-29T05:27:59.964Z,40.90
2018-12-29T05:30:29.668Z,45.67
2018-12-29T05:32:59.796Z,38.35
2018-12-29T05:35:29.497Z,48.10
2018-12-29T05:37:59.007Z,44.18
2018-12-29T05:40:28.615Z,47.17
2018-12-29T05:42:58.116Z,43.85
2018-12-29T05:45:27.618Z,43.58
2018-12-29T05:47:57.122Z,41.37
2018-12-29T05:50:26.628Z,45.20
2018-12-29T05:52:56.132Z,44.03
2018-12-29T05:55:25.739Z,42.85
2018-12-29T05:57:55.244Z,37.67
2018-12-29T06:00:24.851Z,36.88
2018-12-29T06:02:54.255Z,43.15
2018-12-29T06:05:23.862Z,39.90
2018-12-29T06:07:53.364Z,42.75
2018-12-29T06:10:22.888Z,43.35
2018-12-29T06:12:52.372Z,41.68
2018-12-29T06:15:21.879Z,44.20
2018-12-29T06:17:51.385Z,39.05
2018-12-29T06:20:22.095Z,42.35
2018-12-29T06:22:51.728Z,42.60
2018-12-29T06:25:21.125Z,38.00
2018-12-29T06:27:50.631Z,45.63
2018-12-29T06:30:20.240Z,48.92
2018-12-29T06:32:49.742Z,38.40
2018-12-29T06:35:19.363Z,37.15
2018-12-29T06:37:48.752Z,42.65
2018-12-29T06:40:18.338Z,36.48
2018-12-29T06:42:47.864Z,37.42
2018-12-29T06:45:17.472Z,35.98
2018-12-29T06:47:47.259Z,44.90
2018-12-29T06:50:16.787Z,37.88
2018-12-29T06:52:46.292Z,39.40
2018-12-29T06:55:15.692Z,42.33
2018-12-29T06:57:45.504Z,43.65
2018-12-29T07:00:15.009Z,45.92
2018-12-29T07:02:44.590Z,39.30
2018-12-29T07:05:14.122Z,39.42
2018-12-29T07:07:43.727Z,44.98
2018-12-29T07:10:13.235Z,50.63
2018-12-29T07:12:42.636Z,41.95
2018-12-29T07:15:12.139Z,40.10
2018-12-29T07:17:41.650Z,37.73
2018-12-29T07:20:11.253Z,36.73
2018-12-29T07:22:40.654Z,41.90
2018-12-29T07:25:10.158Z,44.50
2018-12-29T07:27:39.765Z,42.38
2018-12-29T07:30:09.669Z,34.70
2018-12-29T07:32:39.081Z,45.30
2018-12-29T07:35:08.586Z,36.77
2018-12-29T07:37:38.091Z,40.05
2018-12-29T07:40:07.596Z,39.42
2018-12-29T07:42:37.100Z,38.17
2018-12-29T07:45:06.709Z,36.88
2018-12-29T07:47:36.314Z,39.33
2018-12-29T07:50:05.920Z,46.00
2018-12-29T07:52:35.425Z,43.50
2018-12-29T07:55:05.006Z,40.92
2018-12-29T07:57:34.539Z,44.83
2018-12-29T08:00:04.798Z,38.17
2018-12-29T08:02:34.367Z,44.88
2018-12-29T08:05:03.868Z,36.73
2018-12-29T08:07:33.373Z,36.45
2018-12-29T08:10:03.003Z,44.95
2018-12-29T08:12:32.485Z,41.55
2018-12-29T08:15:01.990Z,39.73
2018-12-29T08:17:31.494Z,39.85
2018-12-29T08:20:01.001Z,39.05
2018-12-29T08:22:30.600Z,45.03
2018-12-29T08:25:00.011Z,40.95
2018-12-29T08:27:29.614Z,39.95
2018-12-29T08:29:59.019Z,41.88
2018-12-29T08:32:28.578Z,45.65
2018-12-29T08:34:58.028Z,47.35
2018-12-29T08:37:27.842Z,47.60
2018-12-29T08:39:57.446Z,39.75
2018-12-29T08:42:26.848Z,42.05
2018-12-29T08:44:57.071Z,53.28
2018-12-29T08:47:26.779Z,34.85
2018-12-29T08:49:56.393Z,44.48
2018-12-29T08:52:26.096Z,40.95
2018-12-29T08:54:55.600Z,46.73
2018-12-29T08:57:25.011Z,42.40
2018-12-29T08:59:54.596Z,46.05
2018-12-29T09:02:24.218Z,42.17
2018-12-29T09:04:53.725Z,46.08
2018-12-29T09:07:23.336Z,50.45
2018-12-29T09:09:52.841Z,40.60
2018-12-29T09:12:22.339Z,43.58
2018-12-29T09:14:51.742Z,46.92
2018-12-29T09:17:21.354Z,47.78
2018-12-29T09:19:50.853Z,37.42
2018-12-29T09:22:20.871Z,36.05
2018-12-29T09:24:50.476Z,33.95
2018-12-29T09:27:20.082Z,34.10
2018-12-29T09:29:49.590Z,29.65
2018-12-29T09:32:19.408Z,31.15
2018-12-29T09:34:48.905Z,32.83
2018-12-29T09:37:18.513Z,37.28
2018-12-29T09:39:47.975Z,31.30
2018-12-29T09:42:17.595Z,31.27
2018-12-29T09:44:47.335Z,28.87
2018-12-29T09:47:19.707Z,30.95
2018-12-29T09:49:48.081Z,32.53
2018-12-29T09:52:17.585Z,30.77
2018-12-29T09:54:47.089Z,31.15
2018-12-29T09:57:16.702Z,32.35
2018-12-29T09:59:46.213Z,33.13
2018-12-29T10:02:15.912Z,35.70
2018-12-29T10:04:45.697Z,25.32
2018-12-29T10:07:15.334Z,31.45
2018-12-29T10:09:44.835Z,29.52
2018-12-29T10:12:14.236Z,34.50
2018-12-29T10:14:43.642Z,30.48
2018-12-29T10:17:13.246Z,29.87
2018-12-29T10:19:42.750Z,37.03
2018-12-29T10:22:12.262Z,29.85
2018-12-29T10:24:41.760Z,36.73
2018-12-29T10:27:11.269Z,33.67
2018-12-29T10:29:42.059Z,36.77
2018-12-29T10:32:13.652Z,32.88
2018-12-29T10:34:43.332Z,32.85
2018-12-29T10:37:12.971Z,38.88
2018-12-29T10:39:42.577Z,39.83
2018-12-29T10:42:12.080Z,35.48
2018-12-29T10:44:41.585Z,35.88
2018-12-29T10:47:11.090Z,37.28
2018-12-29T10:49:41.110Z,36.20
2018-12-29T10:52:10.611Z,31.97
2018-12-29T10:54:40.116Z,34.30
2018-12-29T10:57:10.032Z,33.75
2018-12-29T10:59:39.741Z,31.55
2018-12-29T11:02:09.451Z,46.60
2018-12-29T11:04:39.099Z,34.27
2018-12-29T11:07:08.663Z,41.33
2018-12-29T11:09:40.016Z,36.77
2018-12-29T11:12:09.617Z,37.15
2018-12-29T11:14:39.228Z,34.23
2018-12-29T11:17:08.734Z,31.35
2018-12-29T11:19:38.238Z,35.92
2018-12-29T11:22:07.752Z,36.93
2018-12-29T11:24:37.563Z,34.35
2018-12-29T11:27:07.362Z,38.15
2018-12-29T11:29:38.512Z,33.83
2018-12-29T11:32:08.010Z,35.13
2018-12-29T11:34:37.515Z,38.35
2018-12-29T11:37:07.020Z,36.58
2018-12-29T11:39:36.526Z,38.17
2018-12-29T11:42:06.132Z,35.45
2018-12-29T11:44:35.540Z,30.95
2018-12-29T11:47:05.242Z,32.28
2018-12-29T11:49:35.774Z,32.08
2018-12-29T11:52:05.275Z,28.75
2018-12-29T11:54:34.781Z,34.43
2018-12-29T11:57:04.286Z,32.50
2018-12-29T11:59:33.788Z,37.25
2018-12-29T12:02:03.295Z,32.00
2018-12-29T12:04:32.901Z,34.20
2018-12-29T12:07:02.711Z,31.10
2018-12-29T12:09:32.218Z,26.37
2018-12-29T12:12:02.746Z,30.60
2018-12-29T12:14:32.342Z,32.55
2018-12-29T12:17:01.838Z,32.38
2018-12-29T12:19:31.567Z,33.85
2018-12-29T12:22:01.193Z,35.85
2018-12-29T12:24:30.678Z,33.18
2018-12-29T12:27:00.387Z,34.25
2018-12-29T12:29:31.095Z,32.35
2018-12-29T12:32:00.728Z,35.78
2018-12-29T12:34:30.207Z,36.83
2018-12-29T12:36:59.738Z,31.42
2018-12-29T12:39:29.242Z,29.07
2018-12-29T12:41:58.747Z,31.05
2018-12-29T12:44:28.354Z,39.40
2018-12-29T12:46:58.986Z,29.75
2018-12-29T12:49:28.490Z,30.43
2018-12-29T12:51:57.994Z,30.97
2018-12-29T12:54:27.601Z,27.37
2018-12-29T12:56:57.139Z,32.70
2018-12-29T12:59:27.021Z,31.60
2018-12-29T13:01:56.613Z,32.60
2018-12-29T13:04:26.134Z,29.42
2018-12-29T13:06:56.046Z,28.73
2018-12-29T13:09:25.756Z,30.48
2018-12-29T13:11:55.260Z,30.37
2018-12-29T13:14:26.097Z,24.18
2018-12-29T13:16:55.703Z,28.17
2018-12-29T13:19:28.649Z,30.57
2018-12-29T13:21:56.351Z,26.77
2018-12-29T13:24:25.964Z,25.55
2018-12-29T13:26:55.461Z,28.83
2018-12-29T13:29:24.966Z,32.00
2018-12-29T13:31:54.571Z,24.12
2018-12-29T13:34:23.975Z,29.75
2018-12-29T13:36:53.482Z,24.70
2018-12-29T13:39:23.086Z,29.65
2018-12-29T13:41:53.104Z,30.08
2018-12-29T13:44:22.915Z,25.80
2018-12-29T13:46:52.936Z,28.38
2018-12-29T13:49:22.761Z,25.17
2018-12-29T13:51:52.400Z,27.55
2018-12-29T13:54:21.959Z,27.70
2018-12-29T13:56:51.432Z,33.42
2018-12-29T13:59:21.070Z,28.23
2018-12-29T14:01:50.677Z,32.83
2018-12-29T14:04:20.489Z,24.43
2018-12-29T14:06:50.098Z,26.17
2018-12-29T14:09:19.499Z,29.07
2018-12-29T14:11:49.003Z,25.35
2018-12-29T14:14:18.506Z,27.65
2018-12-29T14:16:48.403Z,31.70
2018-12-29T14:19:17.998Z,30.00
2018-12-29T14:21:47.741Z,27.82
2018-12-29T14:24:17.241Z,32.78
2018-12-29T14:26:47.133Z,29.95
2018-12-29T14:29:16.661Z,32.20
2018-12-29T14:31:46.165Z,34.40
2018-12-29T14:34:15.771Z,30.30
2018-12-29T14:36:45.378Z,27.77
2018-12-29T14:39:14.987Z,30.08
2018-12-29T14:41:44.491Z,32.08
2018-12-29T14:44:13.999Z,26.65
2018-12-29T14:46:44.530Z,25.92
2018-12-29T14:49:14.034Z,32.63
2018-12-29T14:51:43.638Z,33.75
2018-12-29T14:54:13.243Z,25.15
2018-12-29T14:56:42.854Z,47.85
2018-12-29T14:59:12.460Z,51.25
2018-12-29T15:01:41.964Z,58.17
2018-12-29T15:04:11.466Z,36.98
2018-12-29T15:06:41.075Z,30.10
2018-12-29T15:09:10.786Z,37.53
2018-12-29T15:11:40.390Z,39.80
2018-12-29T15:14:10.099Z,49.33
2018-12-29T15:16:39.811Z,40.08
2018-12-29T15:19:09.417Z,33.50
2018-12-29T15:21:38.920Z,41.53
2018-12-29T15:24:09.040Z,38.80
2018-12-29T15:26:38.647Z,36.98
2018-12-29T15:29:08.562Z,40.60
2018-12-29T15:31:38.064Z,35.28
2018-12-29T15:34:07.569Z,31.52
2018-12-29T15:36:37.688Z,28.98
2018-12-29T15:39:08.938Z,34.03
2018-12-29T15:41:38.439Z,35.05
2018-12-29T15:44:08.148Z,33.10
2018-12-29T15:46:37.653Z,37.17
2018-12-29T15:49:07.159Z,30.70
2018-12-29T15:51:36.661Z,30.43
2018-12-29T15:54:06.170Z,31.30
2018-12-29T15:56:35.977Z,28.00
2018-12-29T15:59:05.458Z,30.30
2018-12-29T16:01:34.988Z,30.97
2018-12-29T16:04:04.596Z,31.00
2018-12-29T16:06:34.098Z,35.85
2018-12-29T16:09:04.730Z,31.95
2018-12-29T16:11:34.851Z,30.52
2018-12-29T16:14:04.356Z,30.48
2018-12-29T16:16:33.860Z,33.40
2018-12-29T16:19:03.567Z,26.77
2018-12-29T16:21:33.189Z,30.90
2018-12-29T16:24:02.782Z,26.30
2018-12-29T16:26:32.190Z,23.83
2018-12-29T16:29:01.586Z,27.50
2018-12-29T16:31:31.298Z,26.50
2018-12-29T16:34:00.800Z,20.40
2018-12-29T16:36:30.818Z,24.60
2018-12-29T16:39:00.323Z,27.52
2018-12-29T16:41:29.828Z,21.68
2018-12-29T16:43:59.640Z,23.83
2018-12-29T16:46:29.143Z,20.57
2018-12-29T16:49:06.554Z,19.48
2018-12-29T16:51:29.999Z,21.95
2018-12-29T16:53:59.604Z,21.02
2018-12-29T16:56:29.518Z,20.27
2018-12-29T16:58:59.021Z,21.48
2018-12-29T17:01:30.165Z,21.42
2018-12-29T17:03:59.878Z,19.20
2018-12-29T17:06:31.017Z,19.37
2018-12-29T17:09:00.605Z,18.07
2018-12-29T17:11:30.128Z,20.65
2018-12-29T17:13:59.632Z,19.67
2018-12-29T17:16:29.139Z,21.12
2018-12-29T17:18:58.721Z,20.25
2018-12-29T17:21:28.351Z,33.75
2018-12-29T17:23:57.857Z,15.00
2018-12-29T17:26:27.361Z,18.42
2018-12-29T17:28:56.970Z,23.73
2018-12-29T17:31:26.472Z,19.35
2018-12-29T17:33:55.977Z,20.12
2018-12-29T17:36:25.482Z,17.55
2018-12-29T17:38:55.296Z,18.87
2018-12-29T17:41:24.798Z,16.32
2018-12-29T17:43:54.713Z,17.25
2018-12-29T17:46:24.318Z,19.52
2018-12-29T17:48:53.927Z,18.98
2018-12-29T17:51:23.432Z,16.77
2018-12-29T17:53:52.833Z,15.10
2018-12-29T17:56:22.952Z,23.75
2018-12-29T17:58:52.661Z,16.50
2018-12-29T18:01:22.489Z,17.52
2018-12-29T18:03:52.441Z,17.52
2018-12-29T18:06:23.121Z,17.48
2018-12-29T18:08:52.831Z,18.92
2018-12-29T18:11:23.996Z,16.02
2018-12-29T18:13:55.219Z,14.45
2018-12-29T18:16:24.830Z,14.73
2018-12-29T18:18:54.330Z,15.70
2018-12-29T18:21:24.040Z,13.50
2018-12-29T18:23:53.551Z,18.80
2018-12-29T18:26:23.253Z,17.30
2018-12-29T18:28:52.860Z,16.30
2018-12-29T18:31:22.468Z,16.52
2018-12-29T18:33:52.178Z,17.82
2018-12-29T18:36:21.683Z,19.27
2018-12-29T18:38:51.186Z,15.43
2018-12-29T18:41:21.307Z,14.03
2018-12-29T18:43:52.015Z,16.60
2018-12-29T18:46:22.807Z,13.45
2018-12-29T18:48:52.614Z,13.50
2018-12-29T18:51:22.368Z,15.40
2018-12-29T18:53:52.002Z,13.80
2018-12-29T18:56:21.645Z,12.13
2018-12-29T18:58:51.354Z,14.47
2018-12-29T19:01:21.343Z,14.68
2018-12-29T19:03:50.844Z,16.02
2018-12-29T19:06:20.361Z,12.98
2018-12-29T19:08:50.325Z,14.00
2018-12-29T19:11:19.864Z,12.98
2018-12-29T19:13:52.349Z,18.75
2018-12-29T19:16:21.947Z,13.25
2018-12-29T19:18:51.451Z,13.20
2018-12-29T19:21:21.472Z,12.15
2018-12-29T19:23:51.587Z,13.90
2018-12-29T19:26:21.502Z,14.63
2018-12-29T19:28:51.591Z,15.00
2018-12-29T19:31:21.331Z,15.95
2018-12-29T19:33:50.845Z,14.35
2018-12-29T19:36:20.236Z,18.98
2018-12-29T19:38:50.047Z,16.37
2018-12-29T19:41:19.656Z,16.07
2018-12-29T19:43:49.673Z,17.60
2018-12-29T19:46:19.691Z,18.50
2018-12-29T19:48:49.173Z,19.82
2018-12-29T19:51:18.703Z,20.00
2018-12-29T19:53:48.617Z,17.70
2018-12-29T19:56:19.304Z,18.45
2018-12-29T19:58:53.973Z,17.23
2018-12-29T20:01:25.854Z,18.32
2018-12-29T20:03:59.619Z,22.00
2018-12-29T20:06:35.241Z,18.65
2018-12-29T20:09:06.889Z,19.57
2018-12-29T20:11:36.445Z,20.17
2018-12-29T20:14:05.950Z,21.10
2018-12-29T20:16:35.966Z,25.23
2018-12-29T20:19:10.692Z,23.77
2018-12-29T20:21:40.198Z,23.83
2018-12-29T20:24:10.842Z,26.25
2018-12-29T20:26:40.740Z,24.72
2018-12-29T20:29:10.247Z,21.65
2018-12-29T20:31:39.751Z,22.05
2018-12-29T20:34:09.255Z,23.83
2018-12-29T20:36:38.764Z,24.00
2018-12-29T20:39:08.881Z,23.98
2018-12-29T20:41:38.385Z,24.35
2018-12-29T20:44:07.991Z,23.95
2018-12-29T20:46:37.497Z,24.52
2018-12-29T20:49:08.312Z,22.75
2018-12-29T20:51:40.200Z,19.40
2018-12-29T20:54:09.901Z,23.47
2018-12-29T20:56:39.326Z,20.35
2018-12-29T20:59:08.910Z,19.25
2018-12-29T21:01:38.518Z,18.30
2018-12-29T21:04:08.123Z,19.90
2018-12-29T21:06:37.731Z,21.35
2018-12-29T21:09:08.749Z,18.65
2018-12-29T21:11:38.488Z,18.82
2018-12-29T21:14:07.985Z,16.65
2018-12-29T21:16:37.495Z,18.90
2018-12-29T21:19:08.434Z,17.87
2018-12-29T21:21:38.139Z,17.55
2018-12-29T21:24:27.521Z,20.12
2018-12-29T21:26:39.199Z,19.17
2018-12-29T21:29:08.713Z,23.67
2018-12-29T21:31:38.610Z,19.92
2018-12-29T21:34:08.322Z,21.90
2018-12-29T21:36:38.112Z,19.42
2018-12-29T21:39:08.155Z,15.98
2018-12-29T21:41:38.392Z,16.15
2018-12-29T21:44:07.878Z,18.10
2018-12-29T21:46:37.586Z,15.75
2018-12-29T21:49:07.296Z,22.10
2018-12-29T21:51:36.905Z,20.25
2018-12-29T21:54:08.780Z,16.30
2018-12-29T21:56:38.482Z,16.30
2018-12-29T21:59:08.082Z,15.25
2018-12-29T22:01:37.787Z,21.60
2018-12-29T22:04:07.293Z,16.93
2018-12-29T22:06:37.210Z,19.60
2018-12-29T22:09:07.532Z,16.30
2018-12-29T22:11:37.138Z,15.93
2018-12-29T22:14:06.643Z,16.20
2018-12-29T22:16:36.149Z,15.25
2018-12-29T22:19:06.076Z,17.85
2018-12-29T22:21:36.681Z,15.30
2018-12-29T22:24:06.498Z,18.55
2018-12-29T22:26:36.149Z,16.87
2018-12-29T22:29:06.036Z,17.45
2018-12-29T22:31:37.274Z,18.60
2018-12-29T22:34:07.113Z,20.68
2018-12-29T22:36:36.937Z,21.07
2018-12-29T22:39:08.665Z,16.97
2018-12-29T22:41:38.494Z,14.87
2018-12-29T22:44:07.971Z,19.17
2018-12-29T22:46:37.577Z,16.12
2018-12-29T22:49:07.182Z,20.45
2018-12-29T22:51:36.688Z,16.52
2018-12-29T22:54:06.168Z,22.62
2018-12-29T22:56:35.701Z,16.93
2018-12-29T22:59:05.202Z,14.58
2018-12-29T23:01:34.707Z,16.77
2018-12-29T23:04:04.208Z,16.50
2018-12-29T23:06:33.922Z,14.83
2018-12-29T23:09:06.171Z,17.15
2018-12-29T23:11:35.695Z,17.17
2018-12-29T23:14:05.200Z,17.23
2018-12-29T23:16:34.806Z,16.70
2018-12-29T23:19:04.414Z,15.10
2018-12-29T23:21:33.918Z,15.55
2018-12-29T23:24:03.911Z,15.43
2018-12-29T23:26:33.439Z,14.93
2018-12-29T23:29:03.046Z,14.78
2018-12-29T23:31:32.653Z,20.40
2018-12-29T23:34:02.161Z,16.05
2018-12-29T23:36:31.958Z,17.27
2018-12-29T23:39:02.089Z,14.50
2018-12-29T23:41:33.541Z,18.32
2018-12-29T23:44:04.486Z,16.65
2018-12-29T23:46:33.983Z,15.85
2018-12-29T23:49:03.487Z,16.35
2018-12-29T23:51:32.994Z,19.23
2018-12-29T23:54:02.803Z,14.15
2018-12-29T23:56:32.820Z,14.45
2018-12-29T23:59:02.324Z,13.95
